Time;durP1;ratioP1;P1;durP2;ratioP2;P2;SDS_P1;SDS_P2;PMS_P1;PMS_P2;Temp;Humidity;BMP_temperature;BMP_pressure;BME280_temperature;BME280_humidity;BME280_pressure;Samples;Min_cycle;Max_cycle;Signal;HPM_P1;HPM_P2
2022/06/30 00:01:07;;;;;;;14.17;9.83;;;24.80;75.80;;;;;;5015483;28;20457;-81
2022/06/30 00:03:35;;;;;;;10.10;9.30;;;24.70;75.80;;;;;;5015193;28;20473;-81
2022/06/30 00:06:07;;;;;;;9.03;8.13;;;24.50;76.10;;;;;;5003826;28;20473;-82
2022/06/30 00:08:37;;;;;;;10.37;9.07;;;24.40;76.50;;;;;;5014833;28;20944;-81
2022/06/30 00:11:08;;;;;;;10.20;9.17;;;24.20;77.00;;;;;;5015383;28;20490;-81
2022/06/30 00:13:38;;;;;;;9.90;8.83;;;24.30;77.00;;;;;;5014227;28;20455;-82
2022/06/30 00:16:10;;;;;;;12.10;9.60;;;24.30;76.90;;;;;;5015008;28;20512;-81
2022/06/30 00:18:38;;;;;;;9.00;8.20;;;24.30;76.90;;;;;;5014932;28;20457;-81
2022/06/30 00:21:07;;;;;;;11.83;10.67;;;24.40;76.70;;;;;;5012060;28;20480;-83
2022/06/30 00:23:37;;;;;;;10.20;9.30;;;24.40;76.70;;;;;;5014734;28;20506;-81
2022/06/30 00:26:07;;;;;;;9.87;8.97;;;24.40;76.80;;;;;;5014472;28;20475;-81
2022/06/30 00:28:36;;;;;;;10.40;9.40;;;24.40;76.90;;;;;;5014970;28;20461;-81
2022/06/30 00:31:07;;;;;;;9.93;9.13;;;24.40;76.90;;;;;;5013028;28;20563;-81
2022/06/30 00:33:35;;;;;;;10.60;9.17;;;24.40;76.90;;;;;;5014400;28;20484;-80
2022/06/30 00:36:08;;;;;;;10.07;9.20;;;24.40;76.80;;;;;;5004610;28;20492;-80
2022/06/30 00:38:38;;;;;;;10.10;9.10;;;24.40;76.90;;;;;;5015349;28;20554;-81
2022/06/30 00:41:07;;;;;;;10.67;9.80;;;24.40;77.00;;;;;;4994336;28;20503;-81
2022/06/30 00:43:43;;;;;;;9.63;8.73;;;24.40;77.40;;;;;;5007512;28;20440;-81
2022/06/30 00:46:11;;;;;;;11.37;10.27;;;24.40;77.50;;;;;;5014819;28;20479;-84
2022/06/30 00:48:40;;;;;;;10.20;9.20;;;24.40;77.40;;;;;;5014304;28;20484;-81
2022/06/30 00:51:10;;;;;;;11.37;10.30;;;24.40;77.70;;;;;;5014325;28;20479;-83
2022/06/30 00:53:41;;;;;;;10.67;9.53;;;24.40;77.80;;;;;;5014705;28;20484;-81
2022/06/30 00:56:10;;;;;;;11.23;10.13;;;24.40;77.70;;;;;;5014361;28;20440;-81
2022/06/30 00:58:41;;;;;;;10.10;9.10;;;24.40;78.10;;;;;;5012940;28;20972;-82
2022/06/30 01:01:11;;;;;;;10.13;9.30;;;24.40;77.40;;;;;;5014683;28;20439;-81
2022/06/30 01:03:40;;;;;;;10.07;9.10;;;24.40;76.70;;;;;;5010966;28;20520;-81
2022/06/30 01:06:08;;;;;;;11.30;9.77;;;24.10;76.50;;;;;;5010057;28;20462;-81
2022/06/30 01:08:37;;;;;;;11.40;10.40;;;23.80;76.70;;;;;;5000791;28;20541;-80
2022/06/30 01:13:55;;;;;;;12.67;11.30;;;23.10;78.80;;;;;;5014335;28;20447;-82
2022/06/30 01:16:23;;;;;;;12.90;11.80;;;22.90;79.20;;;;;;5013319;28;20995;-82
2022/06/30 01:18:52;;;;;;;12.10;11.00;;;22.80;79.90;;;;;;5013776;28;20536;-80
2022/06/30 01:21:20;;;;;;;13.00;11.80;;;22.90;79.80;;;;;;5007628;28;20472;-81
2022/06/30 01:23:49;;;;;;;12.47;11.37;;;22.90;79.80;;;;;;5013687;28;20472;-81
2022/06/30 01:26:18;;;;;;;12.90;11.60;;;22.90;79.90;;;;;;5013976;28;20499;-83
2022/06/30 01:28:46;;;;;;;12.67;11.40;;;23.00;80.00;;;;;;5005447;28;20584;-81
2022/06/30 01:31:14;;;;;;;13.00;11.80;;;23.10;79.80;;;;;;5008827;28;20993;-80
2022/06/30 01:33:42;;;;;;;13.40;12.13;;;23.10;79.90;;;;;;4994637;28;20552;-82
2022/06/30 01:36:11;;;;;;;14.03;12.70;;;23.10;79.80;;;;;;5013415;28;20469;-80
2022/06/30 01:38:39;;;;;;;13.47;12.20;;;23.20;79.50;;;;;;5013699;28;20481;-81
2022/06/30 01:41:08;;;;;;;12.33;11.33;;;23.30;79.40;;;;;;5003688;28;20496;-81
2022/06/30 01:43:37;;;;;;;14.20;12.90;;;23.30;79.20;;;;;;5010576;28;20472;-80
2022/06/30 01:46:08;;;;;;;16.50;13.17;;;23.10;79.60;;;;;;5013287;28;20552;-81
2022/06/30 01:48:37;;;;;;;13.40;12.20;;;22.70;80.40;;;;;;5012759;28;20610;-81
2022/06/30 01:51:08;;;;;;;13.13;11.90;;;22.80;80.30;;;;;;5013630;28;20456;-81
2022/06/30 01:53:36;;;;;;;14.10;12.80;;;22.80;80.00;;;;;;5006545;28;20464;-81
2022/06/30 01:56:09;;;;;;;14.30;12.80;;;22.70;80.10;;;;;;5007766;28;20939;-80
2022/06/30 01:58:38;;;;;;;14.50;13.20;;;22.60;79.80;;;;;;5012577;28;20468;-81
2022/06/30 02:01:09;;;;;;;14.10;12.80;;;22.40;80.20;;;;;;5012890;28;20494;-81
2022/06/30 02:03:37;;;;;;;14.90;13.30;;;22.40;80.70;;;;;;5007874;28;20453;-80
2022/06/30 02:06:09;;;;;;;15.67;13.57;;;22.50;80.70;;;;;;5011082;28;20460;-81
2022/06/30 02:08:37;;;;;;;14.87;12.07;;;22.50;80.40;;;;;;5012886;28;20560;-81
2022/06/30 02:11:09;;;;;;;15.03;13.63;;;22.60;80.30;;;;;;5012936;28;20503;-81
2022/06/30 02:13:38;;;;;;;15.07;13.70;;;22.60;80.30;;;;;;5013382;28;20451;-82
2022/06/30 02:16:09;;;;;;;15.30;13.90;;;22.70;80.30;;;;;;5013089;28;20489;-81
2022/06/30 02:18:37;;;;;;;14.73;13.43;;;22.70;80.10;;;;;;5013482;28;20904;-80
2022/06/30 02:21:08;;;;;;;15.20;13.80;;;22.80;79.90;;;;;;4999008;28;20890;-81
2022/06/30 02:23:36;;;;;;;14.30;12.80;;;22.80;79.90;;;;;;5012051;28;20479;-80
2022/06/30 02:26:08;;;;;;;14.43;13.10;;;22.80;80.00;;;;;;5012580;28;20461;-81
2022/06/30 02:28:37;;;;;;;13.67;12.37;;;22.70;80.00;;;;;;5004668;28;20517;-80
2022/06/30 02:31:08;;;;;;;14.10;12.80;;;22.60;80.10;;;;;;5011760;28;20494;-80
2022/06/30 02:33:36;;;;;;;15.83;14.30;;;22.60;80.00;;;;;;5011700;28;20461;-82
2022/06/30 02:36:08;;;;;;;13.47;12.17;;;22.60;79.90;;;;;;5019088;28;21016;-81
2022/06/30 02:38:36;;;;;;;15.00;13.37;;;22.50;79.90;;;;;;5013393;28;20472;-80
2022/06/30 02:41:08;;;;;;;13.23;12.03;;;22.50;80.10;;;;;;5013071;28;20795;-82
2022/06/30 02:43:37;;;;;;;15.00;13.47;;;22.60;80.10;;;;;;5031035;28;20574;-80
2022/06/30 02:46:07;;;;;;;15.63;13.57;;;22.60;79.80;;;;;;5012751;28;20510;-80
2022/06/30 02:48:36;;;;;;;13.90;12.50;;;22.60;80.10;;;;;;5012849;28;20480;-80
2022/06/30 02:51:07;;;;;;;14.47;13.27;;;22.60;80.20;;;;;;5007041;28;20870;-81
2022/06/30 02:53:35;;;;;;;15.73;14.23;;;22.60;80.00;;;;;;4993374;28;20453;-81
2022/06/30 02:56:06;;;;;;;14.77;13.27;;;22.60;80.00;;;;;;4997916;28;20473;-80
2022/06/30 02:58:36;;;;;;;17.17;14.20;;;22.50;79.80;;;;;;5008976;28;20508;-80
2022/06/30 03:01:07;;;;;;;15.30;13.27;;;22.40;79.50;;;;;;5007083;28;20482;-81
2022/06/30 03:03:35;;;;;;;16.30;13.60;;;22.40;79.10;;;;;;5005080;28;20994;-81
2022/06/30 03:06:06;;;;;;;13.73;12.27;;;22.40;78.80;;;;;;5016683;28;20522;-81
2022/06/30 03:08:34;;;;;;;12.20;11.20;;;22.30;79.10;;;;;;5016459;28;21044;-82
2022/06/30 03:11:05;;;;;;;14.57;12.07;;;22.20;79.10;;;;;;5008052;28;20516;-80
2022/06/30 03:13:33;;;;;;;14.33;12.40;;;22.20;78.90;;;;;;5012490;28;20460;-80
2022/06/30 03:16:05;;;;;;;14.00;12.63;;;22.20;78.60;;;;;;5010145;28;20924;-80
2022/06/30 03:18:33;;;;;;;14.70;12.70;;;22.20;78.40;;;;;;5010050;28;20510;-80
2022/06/30 03:21:04;;;;;;;14.60;13.10;;;22.20;78.50;;;;;;5007869;28;20847;-81
2022/06/30 03:23:32;;;;;;;14.67;13.27;;;22.00;79.10;;;;;;5015779;28;20541;-80
2022/06/30 03:26:01;;;;;;;13.90;12.67;;;21.70;80.10;;;;;;5018012;28;20851;-81
2022/06/30 03:28:32;;;;;;;16.07;14.57;;;21.60;80.90;;;;;;5022415;28;20518;-80
2022/06/30 03:31:00;;;;;;;14.30;12.93;;;21.60;81.30;;;;;;5022013;28;20624;-81
2022/06/30 03:33:34;;;;;;;14.57;13.23;;;21.60;81.20;;;;;;5023640;28;20459;-80
2022/06/30 03:36:06;;;;;;;15.40;13.70;;;21.60;81.10;;;;;;5024228;28;20952;-80
2022/06/30 03:38:34;;;;;;;15.27;13.87;;;21.70;81.10;;;;;;5011848;28;20454;-80
2022/06/30 03:41:05;;;;;;;15.80;13.20;;;21.60;80.80;;;;;;5024928;28;21019;-80
2022/06/30 03:43:33;;;;;;;15.00;13.33;;;21.40;81.20;;;;;;5023651;28;20803;-80
2022/06/30 03:46:01;;;;;;;13.67;12.20;;;21.40;81.10;;;;;;5016043;28;20494;-80
2022/06/30 03:48:35;;;;;;;14.50;13.20;;;21.50;80.90;;;;;;5016080;28;20501;-81
2022/06/30 03:51:08;;;;;;;14.97;13.50;;;21.40;80.80;;;;;;5024557;28;20936;-81
2022/06/30 03:53:36;;;;;;;14.00;12.70;;;21.50;80.70;;;;;;5016120;28;20464;-81
2022/06/30 03:56:07;;;;;;;20.33;12.53;;;21.40;81.20;;;;;;5015327;28;20446;-80
2022/06/30 03:58:36;;;;;;;14.57;13.10;;;21.10;82.30;;;;;;5016021;28;20462;-80
2022/06/30 04:01:07;;;;;;;15.47;13.87;;;21.20;82.30;;;;;;5015910;28;20509;-81
2022/06/30 04:03:36;;;;;;;16.47;14.97;;;21.20;82.40;;;;;;5038396;28;20508;-80
2022/06/30 04:06:08;;;;;;;14.50;13.20;;;21.30;82.30;;;;;;5036064;28;20509;-82
2022/06/30 04:08:36;;;;;;;14.27;13.07;;;21.40;82.10;;;;;;5011197;28;20533;-81
2022/06/30 04:11:07;;;;;;;15.40;13.90;;;21.60;81.80;;;;;;5043405;28;20825;-84
2022/06/30 04:13:36;;;;;;;15.53;14.13;;;21.60;81.80;;;;;;5009767;28;20515;-82
2022/06/30 04:16:08;;;;;;;14.67;13.27;;;21.70;81.70;;;;;;5006895;28;20484;-80
2022/06/30 04:18:41;;;;;;;14.83;13.43;;;21.70;81.70;;;;;;5000722;28;20560;-80
2022/06/30 04:21:10;;;;;;;15.57;13.73;;;21.80;81.40;;;;;;5003792;28;20465;-80
2022/06/30 04:23:38;;;;;;;15.30;13.80;;;21.80;81.20;;;;;;5007120;28;20512;-79
2022/06/30 04:26:06;;;;;;;16.50;14.80;;;21.80;81.30;;;;;;5007050;28;20525;-82
2022/06/30 04:28:34;;;;;;;15.77;14.17;;;21.80;81.30;;;;;;5005767;28;20486;-80
2022/06/30 04:34:01;;;;;;;16.63;14.03;;;21.90;81.20;;;;;;4948748;29;20470;-81
2022/06/30 04:36:31;;;;;;;15.30;14.00;;;22.00;81.10;;;;;;4995362;28;20488;-81
2022/06/30 04:39:00;;;;;;;16.50;14.90;;;22.10;80.90;;;;;;5011918;28;20456;-82
2022/06/30 04:41:27;;;;;;;15.83;14.37;;;22.10;80.70;;;;;;5008680;28;20523;-81
2022/06/30 04:43:57;;;;;;;16.27;14.73;;;22.20;80.60;;;;;;5008216;28;20830;-81
2022/06/30 04:46:26;;;;;;;15.50;14.00;;;22.10;80.70;;;;;;5014323;28;20459;-81
2022/06/30 04:48:55;;;;;;;16.17;14.77;;;22.10;80.90;;;;;;5009418;28;20497;-80
2022/06/30 04:51:26;;;;;;;15.50;14.10;;;22.10;81.00;;;;;;5012345;28;20538;-80
2022/06/30 04:53:54;;;;;;;16.10;14.60;;;22.10;81.10;;;;;;5007585;28;20470;-81
2022/06/30 04:56:23;;;;;;;16.43;14.50;;;22.10;81.20;;;;;;5009157;28;20930;-81
2022/06/30 04:58:51;;;;;;;17.00;15.40;;;22.10;81.20;;;;;;5007796;28;20494;-80
2022/06/30 05:01:19;;;;;;;14.70;13.30;;;22.20;81.10;;;;;;5002888;28;20561;-83
2022/06/30 05:03:48;;;;;;;15.07;13.57;;;22.20;81.30;;;;;;5020046;28;20478;-80
2022/06/30 05:06:16;;;;;;;12.90;11.57;;;22.30;81.10;;;;;;5002071;28;20456;-80
2022/06/30 05:08:47;;;;;;;15.80;14.40;;;22.30;81.30;;;;;;5004763;28;20522;-79
2022/06/30 05:11:15;;;;;;;19.13;15.70;;;22.30;81.10;;;;;;5013468;28;20460;-80
2022/06/30 05:13:43;;;;;;;15.63;14.23;;;22.40;80.80;;;;;;5012755;28;20470;-80
2022/06/30 05:16:12;;;;;;;12.37;11.20;;;22.50;80.80;;;;;;5012151;28;20479;-80
2022/06/30 05:18:40;;;;;;;10.67;9.77;;;22.60;80.50;;;;;;5009197;28;20582;-79
2022/06/30 05:21:08;;;;;;;10.33;9.43;;;22.80;80.10;;;;;;4999526;28;20492;-81
2022/06/30 05:23:36;;;;;;;10.67;9.43;;;23.00;79.50;;;;;;5002211;28;20571;-84
2022/06/30 05:28:55;;;;;;;16.10;14.33;;;23.50;77.80;;;;;;5009135;28;20449;-80
2022/06/30 05:44:23;;;;;;;19.03;17.07;;;23.70;77.30;;;;;;5033038;28;20535;-78
2022/06/30 05:46:51;;;;;;;16.63;14.93;;;23.60;77.50;;;;;;5028809;28;20472;-81
2022/06/30 05:49:20;;;;;;;18.50;15.93;;;23.60;77.60;;;;;;5015364;28;21207;-79
2022/06/30 05:51:48;;;;;;;18.23;16.37;;;23.60;77.60;;;;;;5014813;28;20955;-78
2022/06/30 05:54:16;;;;;;;18.07;15.70;;;23.70;77.50;;;;;;5012365;28;20487;-78
2022/06/30 05:56:46;;;;;;;12.37;11.17;;;23.70;78.20;;;;;;5018263;28;20452;-80
2022/06/30 05:59:14;;;;;;;20.33;15.10;;;23.70;78.20;;;;;;5032911;28;20448;-80
2022/06/30 06:01:44;;;;;;;17.17;15.47;;;23.80;77.80;;;;;;5026498;28;20453;-79
2022/06/30 06:04:12;;;;;;;18.23;16.47;;;23.90;77.30;;;;;;5031805;28;20506;-81
2022/06/30 06:06:41;;;;;;;11.37;10.30;;;23.90;77.30;;;;;;5040872;28;20452;-80
2022/06/30 06:09:10;;;;;;;11.50;10.30;;;24.00;76.80;;;;;;5042096;28;20464;-79
2022/06/30 06:11:38;;;;;;;10.30;9.30;;;24.20;76.40;;;;;;5026346;28;20547;-78
2022/06/30 06:14:07;;;;;;;9.30;8.20;;;24.40;75.80;;;;;;5029578;28;20459;-79
2022/06/30 06:16:35;;;;;;;11.43;8.33;;;24.50;75.30;;;;;;5030289;28;20487;-80
2022/06/30 06:19:05;;;;;;;9.97;9.17;;;24.70;74.90;;;;;;5031546;28;20472;-79
2022/06/30 06:21:36;;;;;;;9.10;8.40;;;24.90;74.70;;;;;;5028660;28;20814;-78
2022/06/30 06:24:04;;;;;;;9.73;8.80;;;25.00;74.20;;;;;;5032381;28;20449;-80
2022/06/30 06:26:33;;;;;;;10.37;9.37;;;25.20;74.00;;;;;;5018470;28;20450;-80
2022/06/30 06:29:06;;;;;;;10.40;8.03;;;25.30;73.70;;;;;;5016618;28;21056;-80
2022/06/30 06:31:36;;;;;;;8.90;8.20;;;25.40;73.40;;;;;;5020166;28;20509;-81
2022/06/30 06:34:06;;;;;;;9.23;8.10;;;25.50;73.10;;;;;;5022495;28;20455;-80
2022/06/30 06:36:35;;;;;;;9.27;8.33;;;25.60;73.00;;;;;;5018094;28;21004;-80
2022/06/30 06:39:04;;;;;;;10.13;9.20;;;25.60;72.80;;;;;;5018440;28;20462;-79
2022/06/30 06:41:33;;;;;;;8.37;7.67;;;25.70;72.50;;;;;;5016889;28;20471;-80
2022/06/30 06:44:01;;;;;;;9.20;8.40;;;25.80;72.40;;;;;;5016852;28;20972;-80
2022/06/30 06:46:29;;;;;;;8.87;8.00;;;25.80;72.20;;;;;;5008061;28;20476;-81
2022/06/30 06:49:00;;;;;;;8.87;7.97;;;25.90;72.10;;;;;;5049145;28;21002;-81
2022/06/30 06:51:30;;;;;;;9.20;8.40;;;25.90;72.10;;;;;;5048633;28;20534;-81
2022/06/30 06:53:59;;;;;;;9.70;8.70;;;26.00;72.00;;;;;;5033712;28;20545;-81
2022/06/30 06:56:28;;;;;;;10.80;9.77;;;26.00;71.90;;;;;;5032311;28;20476;-81
2022/06/30 06:59:00;;;;;;;12.47;9.70;;;26.10;71.90;;;;;;5020595;28;20929;-81
2022/06/30 07:01:29;;;;;;;10.33;8.70;;;26.10;71.80;;;;;;5013882;28;20513;-82
2022/06/30 07:03:58;;;;;;;12.40;9.00;;;26.20;71.70;;;;;;5046476;28;20467;-82
2022/06/30 07:06:26;;;;;;;9.33;8.53;;;26.20;71.60;;;;;;5029241;28;20514;-79
2022/06/30 07:08:56;;;;;;;9.57;8.80;;;26.30;71.50;;;;;;5031682;28;20455;-81
2022/06/30 07:11:24;;;;;;;9.20;8.30;;;26.30;71.40;;;;;;5037522;28;20567;-79
2022/06/30 07:13:53;;;;;;;9.67;8.87;;;26.40;71.30;;;;;;5040053;28;21009;-79
2022/06/30 07:16:21;;;;;;;8.70;7.87;;;26.40;71.30;;;;;;5033375;28;20482;-80
2022/06/30 07:18:49;;;;;;;10.30;8.33;;;26.40;71.20;;;;;;5019675;28;20459;-80
2022/06/30 07:21:17;;;;;;;9.63;8.83;;;26.40;71.20;;;;;;5020382;28;20607;-80
2022/06/30 07:23:46;;;;;;;9.13;8.33;;;26.50;71.10;;;;;;5033302;28;20846;-80
2022/06/30 07:26:15;;;;;;;9.80;8.67;;;26.50;71.00;;;;;;5039417;28;20455;-80
2022/06/30 07:28:44;;;;;;;9.77;9.00;;;26.50;70.90;;;;;;5031031;28;20458;-80
2022/06/30 07:31:23;;;;;;;9.60;8.60;;;26.60;70.90;;;;;;5025424;28;20582;-81
2022/06/30 07:33:52;;;;;;;12.10;8.23;;;26.60;70.80;;;;;;5016870;28;20487;-81
2022/06/30 07:36:20;;;;;;;9.73;8.83;;;26.60;70.90;;;;;;5035296;28;20529;-80
2022/06/30 07:38:49;;;;;;;9.10;8.30;;;26.70;71.00;;;;;;5041313;28;20489;-78
2022/06/30 07:41:20;;;;;;;9.20;8.17;;;26.70;71.00;;;;;;5040561;28;20493;-78
2022/06/30 07:43:48;;;;;;;9.93;9.13;;;26.70;71.00;;;;;;5035030;28;20451;-78
2022/06/30 07:46:17;;;;;;;8.67;7.77;;;26.80;70.90;;;;;;5032330;28;20825;-79
2022/06/30 07:48:46;;;;;;;9.30;8.40;;;26.80;70.90;;;;;;5015426;28;20919;-80
2022/06/30 07:51:16;;;;;;;8.43;7.83;;;26.80;70.90;;;;;;5044423;28;20837;-81
2022/06/30 07:53:45;;;;;;;8.73;7.93;;;26.80;70.80;;;;;;5027637;28;20829;-80
2022/06/30 07:56:13;;;;;;;8.67;7.97;;;26.90;70.80;;;;;;5043694;28;20925;-79
2022/06/30 07:58:43;;;;;;;8.87;8.10;;;26.90;70.70;;;;;;5050908;28;20462;-80
2022/06/30 08:01:11;;;;;;;8.30;7.60;;;26.90;70.60;;;;;;5021400;28;20495;-81
2022/06/30 08:03:43;;;;;;;9.70;8.80;;;26.90;70.70;;;;;;5022185;28;20469;-79
2022/06/30 08:06:11;;;;;;;10.07;9.23;;;27.00;70.70;;;;;;5045390;28;20446;-79
2022/06/30 08:08:40;;;;;;;9.83;9.03;;;27.00;70.70;;;;;;5030471;28;20460;-78
2022/06/30 08:11:09;;;;;;;10.30;9.40;;;27.00;70.80;;;;;;5030932;28;20478;-78
2022/06/30 08:13:37;;;;;;;8.17;7.57;;;27.00;70.80;;;;;;5045011;28;20462;-79
2022/06/30 08:16:11;;;;;;;8.33;7.53;;;27.00;70.90;;;;;;5045550;28;20465;-79
2022/06/30 08:18:40;;;;;;;8.53;7.77;;;27.00;70.90;;;;;;5034085;28;20471;-79
2022/06/30 08:21:09;;;;;;;8.43;7.70;;;27.00;70.80;;;;;;5037168;28;20513;-78
2022/06/30 08:23:37;;;;;;;8.40;7.60;;;27.00;70.70;;;;;;5058772;28;20456;-81
2022/06/30 08:26:08;;;;;;;9.00;8.20;;;27.10;70.70;;;;;;5025066;28;20456;-83
2022/06/30 08:28:37;;;;;;;8.50;7.80;;;27.10;70.60;;;;;;5042746;28;20443;-80
2022/06/30 08:31:08;;;;;;;10.00;8.37;;;27.10;70.50;;;;;;5030730;28;20546;-78
2022/06/30 08:33:37;;;;;;;8.47;7.87;;;27.10;70.40;;;;;;5038515;28;20451;-79
2022/06/30 08:36:06;;;;;;;8.60;7.90;;;27.20;70.30;;;;;;5033487;28;20547;-77
2022/06/30 08:38:34;;;;;;;8.60;7.70;;;27.20;70.30;;;;;;5014454;28;20488;-77
2022/06/30 08:43:48;;;;;;;8.87;8.07;;;27.20;70.10;;;;;;5038128;28;20816;-80
2022/06/30 08:46:19;;;;;;;8.20;7.40;;;27.20;70.10;;;;;;5031788;28;20459;-80
2022/06/30 08:48:48;;;;;;;7.70;7.00;;;27.20;70.10;;;;;;5029251;28;20864;-81
2022/06/30 08:51:20;;;;;;;7.77;7.17;;;27.30;69.90;;;;;;5023262;28;20487;-81
2022/06/30 08:53:54;;;;;;;8.00;7.40;;;27.30;69.80;;;;;;5024082;28;20463;-77
2022/06/30 08:56:23;;;;;;;13.13;8.10;;;27.30;69.80;;;;;;5042220;28;20440;-81
2022/06/30 08:58:54;;;;;;;8.27;7.60;;;27.30;69.80;;;;;;5044079;28;20523;-77
2022/06/30 09:01:23;;;;;;;7.93;7.30;;;27.30;69.80;;;;;;5034503;28;20546;-81
2022/06/30 09:03:53;;;;;;;6.70;6.20;;;27.40;69.80;;;;;;5026555;28;20475;-81
2022/06/30 09:06:22;;;;;;;7.37;6.70;;;27.40;69.70;;;;;;5032100;28;20453;-77
2022/06/30 09:09:05;;;;;;;7.10;6.50;;;27.40;69.60;;;;;;5029982;28;20457;-77
2022/06/30 09:11:51;;;;;;;7.67;7.07;;;27.40;69.60;;;;;;5026001;28;20842;-78
2022/06/30 09:14:37;;;;;;;7.03;6.27;;;27.40;69.60;;;;;;5038082;28;20449;-82
2022/06/30 09:17:08;;;;;;;7.50;6.80;;;27.50;69.40;;;;;;5032169;28;20903;-81
2022/06/30 09:19:50;;;;;;;9.37;7.03;;;27.50;69.20;;;;;;5022856;28;20861;-76
2022/06/30 09:22:19;;;;;;;7.50;6.80;;;27.50;69.20;;;;;;5035871;28;20496;-81
2022/06/30 09:24:57;;;;;;;7.47;6.77;;;27.50;69.10;;;;;;5033430;28;20559;-77
2022/06/30 09:27:27;;;;;;;6.80;6.20;;;27.50;69.00;;;;;;5035748;28;20512;-77
2022/06/30 09:30:00;;;;;;;6.93;6.43;;;27.50;69.00;;;;;;5035907;28;20455;-78
2022/06/30 09:32:50;;;;;;;6.63;6.23;;;27.60;69.00;;;;;;5019172;28;20501;-78
2022/06/30 09:35:22;;;;;;;7.00;6.33;;;27.60;68.90;;;;;;5040591;28;20463;-80
2022/06/30 09:38:02;;;;;;;7.30;6.60;;;27.60;68.80;;;;;;5035315;28;20455;-78
2022/06/30 09:40:33;;;;;;;6.63;6.03;;;27.60;68.70;;;;;;5013352;28;20463;-80
2022/06/30 09:43:02;;;;;;;7.30;6.63;;;27.70;68.70;;;;;;5040038;28;20460;-80
2022/06/30 09:45:37;;;;;;;7.10;5.90;;;27.70;68.70;;;;;;5033246;28;20457;-79
2022/06/30 09:48:06;;;;;;;7.77;7.07;;;27.70;68.60;;;;;;5032597;28;20482;-80
2022/06/30 09:50:36;;;;;;;6.83;6.33;;;27.70;68.50;;;;;;5041166;28;20882;-77
2022/06/30 09:53:11;;;;;;;7.17;6.57;;;27.70;68.30;;;;;;5032602;28;20480;-79
2022/06/30 09:55:42;;;;;;;5.30;4.90;;;27.80;68.10;;;;;;5020493;28;20441;-78
2022/06/30 09:58:14;;;;;;;6.60;6.10;;;27.80;67.90;;;;;;5036073;28;20448;-79
2022/06/30 10:00:51;;;;;;;6.83;6.33;;;27.80;67.90;;;;;;5036503;28;20456;-78
2022/06/30 10:03:21;;;;;;;6.13;5.73;;;27.80;67.80;;;;;;5033267;28;20949;-77
2022/06/30 10:06:06;;;;;;;6.87;6.37;;;27.80;67.80;;;;;;5028180;28;20570;-78
2022/06/30 10:08:36;;;;;;;6.03;5.63;;;27.80;67.70;;;;;;5026480;28;20507;-79
2022/06/30 10:11:08;;;;;;;6.10;5.50;;;27.80;67.60;;;;;;5025718;28;20481;-81
2022/06/30 10:13:38;;;;;;;6.53;6.03;;;27.80;67.60;;;;;;5027127;28;20542;-78
2022/06/30 10:16:08;;;;;;;7.30;6.70;;;27.80;67.50;;;;;;5028915;28;20533;-79
2022/06/30 10:18:39;;;;;;;6.70;6.20;;;27.80;67.40;;;;;;5016095;28;20817;-78
2022/06/30 10:21:10;;;;;;;6.87;6.37;;;27.80;67.30;;;;;;5024953;28;20905;-78
2022/06/30 10:23:39;;;;;;;6.63;6.13;;;27.80;67.30;;;;;;5026596;28;20488;-81
2022/06/30 10:27:11;;;;;;;6.47;6.00;;;27.80;67.20;;;;;;5027225;28;20459;-81
2022/06/30 10:28:55;;;;;;;7.20;6.60;;;27.80;67.10;;;;;;5029420;28;20488;-80
2022/06/30 10:31:30;;;;;;;7.50;6.90;;;27.80;67.10;;;;;;5026570;28;20485;-79
2022/06/30 10:34:04;;;;;;;7.73;7.13;;;27.80;66.90;;;;;;5026461;28;20464;-78
2022/06/30 10:36:40;;;;;;;7.57;6.97;;;27.80;66.90;;;;;;5023663;28;20490;-81
2022/06/30 10:39:17;;;;;;;8.30;6.90;;;27.80;66.80;;;;;;5029852;28;20493;-77
2022/06/30 10:41:47;;;;;;;7.73;7.17;;;27.90;66.80;;;;;;5028595;28;20468;-77
2022/06/30 10:44:21;;;;;;;8.23;7.63;;;27.90;66.90;;;;;;5025566;28;20938;-78
2022/06/30 10:47:05;;;;;;;8.00;7.30;;;27.90;67.00;;;;;;5023428;28;20806;-77
2022/06/30 10:49:55;;;;;;;8.33;7.70;;;27.90;67.00;;;;;;5026746;28;20505;-77
2022/06/30 10:52:28;;;;;;;8.30;7.70;;;28.00;67.00;;;;;;5027415;28;20491;-77
2022/06/30 10:55:02;;;;;;;7.70;7.10;;;28.00;67.00;;;;;;5011776;28;20453;-80
2022/06/30 10:58:02;;;;;;;8.20;7.50;;;28.10;66.90;;;;;;5020513;28;20449;-78
2022/06/30 11:00:44;;;;;;;8.00;7.30;;;28.10;66.60;;;;;;5023664;28;20469;-78
2022/06/30 11:03:57;;;;;;;8.17;7.37;;;28.20;66.60;;;;;;5025615;28;21050;-78
2022/06/30 11:06:56;;;;;;;7.10;6.60;;;28.20;66.40;;;;;;5028383;28;20441;-78
2022/06/30 11:10:01;;;;;;;7.83;7.23;;;28.20;66.40;;;;;;5028284;28;20542;-78
2022/06/30 11:13:06;;;;;;;8.47;7.87;;;28.20;66.30;;;;;;5024971;28;20486;-81
2022/06/30 11:15:54;;;;;;;7.57;6.90;;;28.20;66.30;;;;;;5030211;28;20464;-79
2022/06/30 11:18:24;;;;;;;8.30;7.60;;;28.20;66.30;;;;;;5032083;28;20458;-80
2022/06/30 11:20:54;;;;;;;9.77;7.63;;;28.20;66.30;;;;;;5033703;28;20457;-79
2022/06/30 11:23:23;;;;;;;8.53;7.87;;;28.20;66.20;;;;;;5037710;28;20469;-79
2022/06/30 11:28:44;;;;;;;8.63;7.93;;;28.20;66.30;;;;;;5028191;28;20939;-79
2022/06/30 11:31:31;;;;;;;8.20;7.50;;;28.20;66.30;;;;;;5030031;28;20445;-79
2022/06/30 11:34:03;;;;;;;8.40;7.80;;;28.20;66.30;;;;;;5030419;28;20935;-84
2022/06/30 11:36:32;;;;;;;6.80;6.30;;;28.20;66.30;;;;;;5031747;28;20465;-79
2022/06/30 11:39:03;;;;;;;7.90;7.30;;;28.30;66.20;;;;;;5028758;28;20484;-77
2022/06/30 11:44:21;;;;;;;8.70;7.90;;;28.30;66.10;;;;;;5025004;28;20469;-80
2022/06/30 11:46:56;;;;;;;7.33;6.83;;;28.30;66.40;;;;;;5021310;28;20462;-79
2022/06/30 11:49:27;;;;;;;7.33;6.70;;;28.30;66.60;;;;;;5027792;28;20588;-83
2022/06/30 11:51:56;;;;;;;9.03;8.33;;;28.40;66.50;;;;;;5033417;28;20459;-79
2022/06/30 11:54:27;;;;;;;7.20;6.60;;;28.40;66.50;;;;;;5023163;28;20534;-82
2022/06/30 11:56:57;;;;;;;7.17;6.57;;;28.50;66.40;;;;;;5010607;28;20542;-83
2022/06/30 11:59:27;;;;;;;6.53;5.97;;;28.60;66.30;;;;;;5030465;28;20518;-79
2022/06/30 12:02:06;;;;;;;7.07;6.50;;;28.60;66.10;;;;;;5026137;28;20560;-81
2022/06/30 12:04:38;;;;;;;7.10;6.50;;;28.70;65.90;;;;;;5030287;28;20569;-78
2022/06/30 12:07:08;;;;;;;7.73;7.10;;;28.80;65.20;;;;;;5023420;28;20456;-81
2022/06/30 12:09:36;;;;;;;6.97;6.47;;;28.90;65.60;;;;;;5011630;28;20518;-79
2022/06/30 12:12:06;;;;;;;6.77;6.17;;;29.00;65.40;;;;;;5032788;28;20561;-79
2022/06/30 12:14:39;;;;;;;6.70;6.20;;;29.10;65.30;;;;;;5031717;28;20551;-80
2022/06/30 12:17:08;;;;;;;7.27;6.67;;;29.20;65.00;;;;;;5028306;28;20517;-83
2022/06/30 12:19:37;;;;;;;6.83;6.13;;;29.30;64.90;;;;;;5031511;28;20458;-81
2022/06/30 12:22:08;;;;;;;7.03;6.37;;;29.40;64.80;;;;;;5031399;28;20458;-78
2022/06/30 12:24:38;;;;;;;7.47;6.70;;;29.50;64.70;;;;;;5029066;28;20462;-79
2022/06/30 12:27:08;;;;;;;7.03;6.50;;;29.60;64.50;;;;;;5030801;28;21263;-78
2022/06/30 12:29:37;;;;;;;6.50;6.03;;;29.80;64.40;;;;;;5035005;28;21312;-80
2022/06/30 12:32:10;;;;;;;7.20;6.50;;;29.90;64.20;;;;;;5044414;28;20459;-81
2022/06/30 12:34:50;;;;;;;7.10;6.60;;;30.00;63.90;;;;;;5043415;28;20518;-79
2022/06/30 12:37:27;;;;;;;6.40;5.90;;;30.10;63.70;;;;;;5032267;28;20450;-77
2022/06/30 12:39:57;;;;;;;6.00;5.50;;;30.20;63.50;;;;;;5037166;28;20461;-80
2022/06/30 12:42:26;;;;;;;6.30;5.70;;;30.30;63.30;;;;;;5052335;28;20469;-80
2022/06/30 12:44:55;;;;;;;5.80;5.30;;;30.40;63.20;;;;;;5053816;28;20461;-82
2022/06/30 12:47:23;;;;;;;5.97;5.47;;;30.40;63.10;;;;;;5049425;28;20934;-81
2022/06/30 12:49:52;;;;;;;5.20;4.70;;;30.50;63.00;;;;;;5039394;28;21117;-81
2022/06/30 12:52:21;;;;;;;6.50;6.00;;;30.60;63.00;;;;;;5028385;28;20470;-81
2022/06/30 12:54:55;;;;;;;5.43;4.93;;;30.70;62.90;;;;;;5031745;28;20510;-79
2022/06/30 12:57:24;;;;;;;5.63;5.23;;;30.70;62.80;;;;;;5032208;28;20459;-79
2022/06/30 12:59:57;;;;;;;5.90;5.50;;;30.70;62.90;;;;;;5035952;28;20512;-78
2022/06/30 13:02:36;;;;;;;6.03;5.60;;;30.80;62.70;;;;;;5028401;28;20465;-82
2022/06/30 13:05:10;;;;;;;5.93;5.37;;;30.90;62.70;;;;;;5035112;28;20467;-81
2022/06/30 13:07:38;;;;;;;5.80;5.40;;;30.90;62.50;;;;;;5031104;28;20586;-80
2022/06/30 13:10:10;;;;;;;5.77;5.27;;;30.90;62.60;;;;;;5023241;28;20551;-80
2022/06/30 13:12:38;;;;;;;5.77;5.20;;;30.90;62.70;;;;;;5035440;28;20984;-81
2022/06/30 13:15:08;;;;;;;5.73;5.33;;;30.80;62.90;;;;;;5038688;28;21073;-81
2022/06/30 13:17:36;;;;;;;5.90;5.50;;;30.70;63.30;;;;;;5033798;28;20486;-80
2022/06/30 13:20:05;;;;;;;5.73;5.30;;;30.60;63.60;;;;;;5034102;28;20451;-81
2022/06/30 13:22:34;;;;;;;4.67;4.37;;;30.60;63.80;;;;;;5023555;28;20883;-81
2022/06/30 13:25:02;;;;;;;5.80;5.30;;;30.50;64.00;;;;;;5030047;28;20491;-79
2022/06/30 13:27:30;;;;;;;5.40;4.50;;;30.50;64.20;;;;;;5030411;28;20518;-80